Welcome to Des Moines Iowa Weather. I am an independent private personal weather station on the Northwest Side of Des Moines, Iowa. Just East of Windsor Heights and just West of Glendale . This site is also mobile friendly.

There are no active watches, warnings or advisories


Visit our other weather sites:

Historical Data

Weather Station Setup



Weather Underground History page Text

Daily Summary for February 10, 2018 Units:  English    Metric   Both
« Previous Day
Next Day »
Daily Weekly Monthly Yearly Custom
  High: Low: Average:
Temperature: 14.4 °F 5.4 °F 9.8 °F
Dew Point: 7.0 °F 2.0 °F 4.9 °F
Humidity: 87 % 70 % 80 %
Wind Speed: 6.0 mph 0.0 mph 1.6 mph
Wind Gust: 10.0 mph - -
Wind:- - WNW
Pressure: 30.40 in 30.22 in -
Precipitation: 0.00 in    
Historical Graphs
 
 
Tabular Data for February 10, 2018
Time Temperature Dew Point Pressure Wind Wind Speed Wind Gust Humidity Rainfall Rate (Hourly)
00:09 5.4 °F 2.0 °F 30.40 in North 4.0 mph 10.0 mph 86 % 0.00 in
00:24 5.4 °F 2.0 °F 30.39 in NE 2.0 mph 7.0 mph 86 % 0.00 in
00:39 5.5 °F 2.0 °F 30.40 in NNE 2.0 mph 7.0 mph 86 % 0.00 in
00:54 5.6 °F 2.0 °F 30.39 in Calm   9.0 mph 86 % 0.00 in
01:09 5.7 °F 2.0 °F 30.38 in North 2.0 mph 5.0 mph 86 % 0.00 in
01:25 5.8 °F 3.0 °F 30.38 in North 2.0 mph 5.0 mph 86 % 0.00 in
01:39 5.9 °F 3.0 °F 30.38 in NNE 1.0 mph 4.0 mph 86 % 0.00 in
01:54 5.9 °F 3.0 °F 30.38 in North 2.0 mph 6.0 mph 87 % 0.00 in
02:09 6.1 °F 3.0 °F 30.37 in Calm   7.0 mph 87 % 0.00 in
02:24 6.2 °F 3.0 °F 30.38 in NNE 4.0 mph 6.0 mph 87 % 0.00 in
02:41 6.2 °F 3.0 °F 30.38 in North 2.0 mph 8.0 mph 87 % 0.00 in
02:56 6.3 °F 3.0 °F 30.37 in NNW 1.0 mph 6.0 mph 87 % 0.00 in
03:09 6.3 °F 3.0 °F 30.37 in NNW 2.0 mph 6.0 mph 87 % 0.00 in
03:28 6.4 °F 3.0 °F 30.37 in NW 1.0 mph 3.0 mph 87 % 0.00 in
03:39 6.4 °F 3.0 °F 30.36 in Calm   4.0 mph 87 % 0.00 in
04:09 6.5 °F 4.0 °F 30.36 in NW 2.0 mph 3.0 mph 87 % 0.00 in
04:24 6.6 °F 4.0 °F 30.37 in NW 2.0 mph 4.0 mph 87 % 0.00 in
04:39 6.6 °F 4.0 °F 30.39 in Calm   4.0 mph 87 % 0.00 in
04:54 6.7 °F 4.0 °F 30.38 in West 3.0 mph 3.0 mph 87 % 0.00 in
05:09 6.8 °F 4.0 °F 30.39 in West 3.0 mph 3.0 mph 87 % 0.00 in
05:24 7.0 °F 4.0 °F 30.39 in Calm   4.0 mph 87 % 0.00 in
05:39 7.1 °F 4.0 °F 30.38 in NW 2.0 mph 4.0 mph 87 % 0.00 in
05:54 7.2 °F 4.0 °F 30.38 in Calm   5.0 mph 87 % 0.00 in
06:09 7.2 °F 4.0 °F 30.37 in NW 1.0 mph 4.0 mph 87 % 0.00 in
06:24 7.3 °F 4.0 °F 30.37 in NW 3.0 mph 5.0 mph 86 % 0.00 in
06:39 7.3 °F 4.0 °F 30.37 in North 2.0 mph 6.0 mph 86 % 0.00 in
06:54 7.3 °F 4.0 °F 30.36 in NW 2.0 mph 4.0 mph 86 % 0.00 in
07:09 7.3 °F 4.0 °F 30.36 in NW 1.0 mph 6.0 mph 86 % 0.00 in
07:24 7.3 °F 4.0 °F 30.36 in North 3.0 mph 5.0 mph 85 % 0.00 in
07:39 7.3 °F 4.0 °F 30.36 in NW 1.0 mph 8.0 mph 85 % 0.00 in
07:54 7.5 °F 4.0 °F 30.37 in West 2.0 mph 8.0 mph 85 % 0.00 in
08:09 7.8 °F 4.0 °F 30.38 in NW 3.0 mph 4.0 mph 85 % 0.00 in
08:25 8.1 °F 5.0 °F 30.38 in NW 2.0 mph 5.0 mph 85 % 0.00 in
08:40 8.6 °F 5.0 °F 30.37 in North 2.0 mph 5.0 mph 85 % 0.00 in
08:55 9.1 °F 6.0 °F 30.38 in North 1.0 mph 4.0 mph 85 % 0.00 in
09:10 9.7 °F 6.0 °F 30.37 in NW 2.0 mph 4.0 mph 84 % 0.00 in
09:25 9.9 °F 6.0 °F 30.37 in North 5.0 mph 8.0 mph 82 % 0.00 in
09:40 10.2 °F 6.0 °F 30.37 in North 2.0 mph 5.0 mph 82 % 0.00 in
09:55 10.3 °F 6.0 °F 30.37 in NNW 3.0 mph 6.0 mph 81 % 0.00 in
10:10 10.4 °F 5.0 °F 30.36 in WNW 2.0 mph 5.0 mph 80 % 0.00 in
10:25 11.1 °F 6.0 °F 30.37 in NW 2.0 mph 6.0 mph 80 % 0.00 in
10:40 11.8 °F 7.0 °F 30.37 in North 3.0 mph 7.0 mph 79 % 0.00 in
10:55 12.3 °F 6.0 °F 30.36 in North 2.0 mph 6.0 mph 77 % 0.00 in
11:10 12.1 °F 6.0 °F 30.37 in North 2.0 mph 4.0 mph 76 % 0.00 in
11:25 12.1 °F 6.0 °F 30.37 in North 2.0 mph 3.0 mph 75 % 0.00 in
11:40 12.7 °F 6.0 °F 30.36 in Calm   4.0 mph 75 % 0.00 in
11:55 12.9 °F 6.0 °F 30.34 in Calm   4.0 mph 73 % 0.00 in
12:10 13.4 °F 6.0 °F 30.34 in Calm   4.0 mph 73 % 0.00 in
12:25 14.0 °F 7.0 °F 30.34 in North 2.0 mph 3.0 mph 72 % 0.00 in
12:40 13.9 °F 6.0 °F 30.34 in North 1.0 mph 4.0 mph 72 % 0.00 in
12:55 14.3 °F 7.0 °F 30.34 in NW 1.0 mph 4.0 mph 74 % 0.00 in
13:10 13.8 °F 6.0 °F 30.32 in Calm   6.0 mph 72 % 0.00 in
13:25 14.3 °F 7.0 °F 30.31 in North 5.0 mph 5.0 mph 73 % 0.00 in
13:40 14.1 °F 7.0 °F 30.30 in NW 2.0 mph 6.0 mph 74 % 0.00 in
13:55 13.9 °F 7.0 °F 30.29 in NW 1.0 mph 8.0 mph 74 % 0.00 in
14:11 14.1 °F 7.0 °F 30.29 in NNW 4.0 mph 5.0 mph 72 % 0.00 in
14:26 14.1 °F 6.0 °F 30.29 in NNW 3.0 mph 6.0 mph 70 % 0.00 in
14:46 14.0 °F 6.0 °F 30.28 in NW 4.0 mph 4.0 mph 71 % 0.00 in
14:56 14.0 °F 6.0 °F 30.27 in North 3.0 mph 5.0 mph 71 % 0.00 in
15:16 14.1 °F 6.0 °F 30.27 in NNW 2.0 mph 4.0 mph 70 % 0.00 in
15:29 14.4 °F 6.0 °F 30.27 in NNW 2.0 mph 5.0 mph 70 % 0.00 in
15:41 14.2 °F 6.0 °F 30.27 in Calm   7.0 mph 70 % 0.00 in
15:56 13.9 °F 6.0 °F 30.26 in Calm   5.0 mph 70 % 0.00 in
16:11 13.6 °F 6.0 °F 30.26 in NW 2.0 mph 4.0 mph 71 % 0.00 in
16:26 13.3 °F 6.0 °F 30.26 in NW 1.0 mph 4.0 mph 71 % 0.00 in
16:41 13.0 °F 6.0 °F 30.25 in Calm   3.0 mph 72 % 0.00 in
16:56 12.7 °F 6.0 °F 30.26 in NW 2.0 mph 3.0 mph 73 % 0.00 in
17:11 12.3 °F 6.0 °F 30.25 in Calm   5.0 mph 74 % 0.00 in
17:26 11.8 °F 5.0 °F 30.25 in WNW 1.0 mph 6.0 mph 75 % 0.00 in
17:41 11.2 °F 5.0 °F 30.25 in WNW 1.0 mph 4.0 mph 76 % 0.00 in
17:56 11.0 °F 5.0 °F 30.25 in WNW 3.0 mph 3.0 mph 77 % 0.00 in
18:11 10.8 °F 5.0 °F 30.26 in Calm   3.0 mph 77 % 0.00 in
18:26 10.7 °F 5.0 °F 30.26 in WNW 2.0 mph 3.0 mph 78 % 0.00 in
18:41 10.6 °F 5.0 °F 30.26 in WNW 3.0 mph 4.0 mph 78 % 0.00 in
18:56 10.4 °F 5.0 °F 30.26 in NW 1.0 mph 4.0 mph 78 % 0.00 in
19:11 10.4 °F 5.0 °F 30.25 in NW 2.0 mph 3.0 mph 79 % 0.00 in
19:26 10.4 °F 5.0 °F 30.26 in Calm   4.0 mph 79 % 0.00 in
19:41 10.3 °F 5.0 °F 30.25 in Calm   3.0 mph 79 % 0.00 in
19:56 10.3 °F 5.0 °F 30.25 in Calm   5.0 mph 79 % 0.00 in
20:11 10.3 °F 5.0 °F 30.25 in Calm   3.0 mph 79 % 0.00 in
20:26 10.3 °F 5.0 °F 30.24 in Calm   4.0 mph 79 % 0.00 in
20:41 10.3 °F 5.0 °F 30.24 in Calm   2.0 mph 79 % 0.00 in
20:56 10.3 °F 5.0 °F 30.23 in Calm   4.0 mph 80 % 0.00 in
21:11 10.3 °F 5.0 °F 30.23 in WNW 1.0 mph 4.0 mph 80 % 0.00 in
21:26 10.3 °F 5.0 °F 30.23 in Calm   1.0 mph 80 % 0.00 in
21:41 10.3 °F 5.0 °F 30.23 in WNW 3.0 mph 3.0 mph 80 % 0.00 in
21:56 10.2 °F 5.0 °F 30.24 in Calm   2.0 mph 80 % 0.00 in
22:11 10.2 °F 5.0 °F 30.25 in Calm   1.0 mph 80 % 0.00 in
22:26 10.0 °F 5.0 °F 30.24 in Calm   3.0 mph 81 % 0.00 in
22:41 9.6 °F 5.0 °F 30.24 in NW 1.0 mph 6.0 mph 82 % 0.00 in
22:56 9.2 °F 5.0 °F 30.23 in WNW 3.0 mph 8.0 mph 83 % 0.00 in
23:11 9.0 °F 5.0 °F 30.23 in NW 2.0 mph 8.0 mph 84 % 0.00 in
23:26 8.8 °F 5.0 °F 30.22 in NW 6.0 mph 8.0 mph 84 % 0.00 in
23:41 8.6 °F 5.0 °F 30.22 in NW 3.0 mph 5.0 mph 85 % 0.00 in
23:56 8.5 °F 5.0 °F 30.23 in NW 3.0 mph 5.0 mph 85 % 0.00 in
Des Moines Weather and Climate
Compliments of Weather Underground - 3 mb

Script developed by  Jim McMurry - jmcmurry@mwt.net Adapted for the template by  Wim van der Kuil - Leuven-Template.eu

You find our weather info also at:

Weather Underground

Equipment we use:

Weather-station
Davis VP2 Plus

Weather-program
Davis Weatherlink.Com

Weather-server
iMac (Retina 4K, 21.5-inch, Late 2015)

Provider
Hostmonster.com

Davis VP2 Plus

Davis Weatherlink.Com

iMac (Retina 4K, 21.5-inch, Late 2015)

Hostmonster.com